YBWW Airport Information

Runway Information
Airport Frequencies
Airport Navaids
Airport Weather Information & NOTAM
ADDS - METARS form results

(1914 UTC 25 February 2021)
Data provider http://aviationweather.gov/metar/data/
 
METAR text: YBWW 251900Z AUTO 17002KT 9999 // SCT015 19/17 Q1011 RF00.0/000.0
Conditions at: YBWW (TOOWOOMBA , AU) observed 1900 UTC 25 February 2021
Temperature: 19.0°C (66°F)
Dewpoint: 17.0°C (63°F) [RH = 88%]
Pressure (altimeter): 29.85 inches Hg (1011.0 mb)
Winds: from the S (170 degrees) at 2 MPH (2 knots; 1.0 m/s)
Visibility: 6 or more miles (10+ km)
Ceiling: at least 12,000 feet AGL
Clouds: scattered clouds at 1500 feet AGL
Weather: no significant weather observed at this time

METAR text: YBWW 251830Z AUTO 03003KT 9999 // SCT015 20/18 Q1011 RF00.0/000.0
Conditions at: YBWW (TOOWOOMBA , AU) observed 1830 UTC 25 February 2021
Temperature: 20.0°C (68°F)
Dewpoint: 18.0°C (64°F) [RH = 88%]
Pressure (altimeter): 29.85 inches Hg (1011.0 mb)
Winds: from the NNE (30 degrees) at 3 MPH (3 knots; 1.5 m/s)
Visibility: 6 or more miles (10+ km)
Ceiling: at least 12,000 feet AGL
Clouds: scattered clouds at 1500 feet AGL
Weather: no significant weather observed at this time

Forecast for: YBWW (TOOWOOMBA , AU)
Text: TAF YBWW 251711Z 2518/2612 07008KT 9000 -SHRA SCT014 BKN025
Forecast period: 1800 to 2000 UTC 25 February 2021
Forecast type: FROM: standard forecast or significant change
Winds: from the ENE (70 degrees) at 9 MPH (8 knots; 4.1 m/s)
Visibility: 6 miles (9 km)
Ceiling: 2500 feet AGL
Clouds: scattered clouds at 1400 feet AGL
broken clouds at 2500 feet AGL
Weather: -SHRA  (light rain showers)
Text: FM252000 07010KT 9999 NSW SCT010 BKN020
Forecast period: 2000 to 2300 UTC 25 February 2021
Forecast type: FROM: standard forecast or significant change
Winds: from the ENE (70 degrees) at 12 MPH (10 knots; 5.1 m/s)
Visibility: 6 or more miles (10+ km)
Ceiling: 2000 feet AGL
Clouds: scattered clouds at 1000 feet AGL
broken clouds at 2000 feet AGL
Weather: NSW  (no significant weather)
Text: FM252300 08012KT 9999 SCT030
Forecast period: 2300 UTC 25 February 2021 to 1200 UTC 26 February 2021
Forecast type: FROM: standard forecast or significant change
Winds: from the E (80 degrees) at 14 MPH (12 knots; 6.2 m/s)
Visibility: 6 or more miles (10+ km)
Ceiling: at least 12,000 feet AGL
Clouds: scattered clouds at 3000 feet AGL
Weather: no significant weather forecast for this period
Text: TEMPO 2518/2523 9999 BKN012
Forecast period: 1800 to 2300 UTC 25 February 2021
Forecast type: TEMPORARY: The following changes expected for less than half the time period
Visibility: 6 or more miles (10+ km)
Ceiling: 1200 feet AGL
Clouds: broken clouds at 1200 feet AGL
Weather: no significant weather forecast for this period